Time;durP1;ratioP1;P1;durP2;ratioP2;P2;SDS_P1;SDS_P2;PMS_P1;PMS_P2;Temp;Humidity;BMP_temperature;BMP_pressure;BME280_temperature;BME280_humidity;BME280_pressure;Samples;Min_cycle;Max_cycle;Signal;HPM_P1;HPM_P2
2022/06/10 00:00:57;;;;;;;7.25;4.03;;;16.60;99.90;;;;;;5014938;28;20392;-82
2022/06/10 00:03:26;;;;;;;12.35;4.30;;;16.60;99.90;;;;;;5019654;28;20417;-83
2022/06/10 00:05:57;;;;;;;5.22;3.95;;;16.60;99.90;;;;;;5020884;28;20407;-80
2022/06/10 00:08:33;;;;;;;6.22;4.10;;;16.60;99.90;;;;;;5013994;28;20410;-82
2022/06/10 00:11:03;;;;;;;9.35;4.07;;;16.60;99.90;;;;;;5016385;28;20409;-84
2022/06/10 00:13:35;;;;;;;10.02;4.25;;;16.50;99.90;;;;;;5020406;28;20409;-82
2022/06/10 00:16:04;;;;;;;8.80;4.05;;;16.60;99.90;;;;;;5013277;28;20962;-83
2022/06/10 00:18:33;;;;;;;9.50;3.60;;;16.60;99.90;;;;;;5014398;28;20402;-82
2022/06/10 00:21:04;;;;;;;8.68;3.95;;;16.40;99.90;;;;;;5020844;28;20483;-84
2022/06/10 00:23:32;;;;;;;11.20;4.38;;;16.40;99.90;;;;;;5007363;28;20394;-84
2022/06/10 00:25:59;;;;;;;9.47;4.47;;;16.40;99.90;;;;;;5020915;28;20412;-82
2022/06/10 00:28:27;;;;;;;10.90;4.00;;;16.40;99.90;;;;;;5019045;28;20402;-83
2022/06/10 00:30:55;;;;;;;8.13;4.03;;;16.40;99.90;;;;;;5014795;28;20476;-84
2022/06/10 00:33:24;;;;;;;6.68;4.32;;;16.30;99.90;;;;;;5015820;28;20500;-83
2022/06/10 00:35:52;;;;;;;7.30;4.35;;;16.30;99.90;;;;;;5017561;28;20407;-82
2022/06/10 00:38:19;;;;;;;9.65;4.28;;;16.30;99.90;;;;;;5019693;28;20406;-83
2022/06/10 00:40:51;;;;;;;9.68;4.25;;;16.20;99.90;;;;;;5008131;28;20483;-83
2022/06/10 00:43:25;;;;;;;8.85;4.18;;;16.20;99.90;;;;;;5016729;28;20439;-83
2022/06/10 00:46:20;;;;;;;9.30;4.50;;;16.30;99.90;;;;;;5017043;28;20505;-83
2022/06/10 00:49:17;;;;;;;8.15;4.20;;;16.30;99.90;;;;;;5011188;28;20397;-84
2022/06/10 00:51:55;;;;;;;7.30;3.95;;;16.20;99.90;;;;;;5033139;28;20467;-84
2022/06/10 00:54:37;;;;;;;8.65;4.35;;;16.20;99.90;;;;;;5010772;28;20424;-84
2022/06/10 00:57:19;;;;;;;9.85;4.20;;;16.20;99.90;;;;;;5007468;28;20445;-83
2022/06/10 01:00:03;;;;;;;7.10;3.90;;;16.20;99.90;;;;;;5012888;28;20412;-82
2022/06/10 01:02:33;;;;;;;8.88;3.95;;;16.20;99.90;;;;;;4992833;28;20407;-83
2022/06/10 01:05:04;;;;;;;9.82;4.30;;;16.10;99.90;;;;;;5013723;28;20813;-81
2022/06/10 01:07:37;;;;;;;7.88;4.18;;;16.00;99.90;;;;;;5014345;28;20381;-83
2022/06/10 01:10:08;;;;;;;7.33;4.40;;;15.90;99.90;;;;;;5017637;28;20466;-83
2022/06/10 01:12:44;;;;;;;9.07;4.30;;;15.90;99.90;;;;;;5008519;28;20434;-82
2022/06/10 01:15:30;;;;;;;9.38;4.68;;;16.00;99.90;;;;;;5011646;28;20385;-82
2022/06/10 01:18:33;;;;;;;5.80;4.40;;;16.10;99.90;;;;;;5016590;28;20770;-83
2022/06/10 01:21:55;;;;;;;7.78;4.25;;;16.00;99.90;;;;;;5016833;28;20440;-84
2022/06/10 01:24:51;;;;;;;6.20;4.65;;;16.00;99.90;;;;;;5049075;28;20407;-83
2022/06/10 01:30:53;;;;;;;10.57;4.40;;;16.00;99.90;;;;;;5058871;28;20532;-83
2022/06/10 01:33:52;;;;;;;9.50;4.20;;;16.00;99.90;;;;;;5018951;28;20839;-82
2022/06/10 01:36:42;;;;;;;6.95;4.45;;;16.00;99.90;;;;;;5002613;28;20487;-85
2022/06/10 01:39:40;;;;;;;8.55;4.47;;;16.00;99.90;;;;;;5018075;28;20399;-82
2022/06/10 01:42:22;;;;;;;10.27;4.72;;;15.90;99.90;;;;;;5010205;28;20404;-83
2022/06/10 01:45:02;;;;;;;7.95;4.80;;;15.90;99.90;;;;;;5012935;28;20810;-83
2022/06/10 01:47:33;;;;;;;8.45;4.93;;;15.90;99.90;;;;;;5000751;28;20408;-83
2022/06/10 01:50:18;;;;;;;7.30;4.20;;;15.90;99.90;;;;;;5016978;28;20407;-84
2022/06/10 01:52:51;;;;;;;8.18;4.63;;;15.90;99.90;;;;;;5009530;28;20403;-84
2022/06/10 01:55:52;;;;;;;7.05;4.57;;;15.90;99.90;;;;;;5013988;28;20393;-83
2022/06/10 01:58:59;;;;;;;5.82;4.78;;;15.90;99.90;;;;;;5031604;28;20506;-84
2022/06/10 02:01:32;;;;;;;6.15;4.50;;;15.90;99.90;;;;;;5049289;28;20406;-83
2022/06/10 02:04:17;;;;;;;5.57;4.47;;;15.90;99.90;;;;;;5021276;28;20414;-82
2022/06/10 02:07:23;;;;;;;7.38;4.80;;;15.90;99.90;;;;;;5000585;28;20781;-84
2022/06/10 02:10:03;;;;;;;7.82;4.45;;;16.00;99.90;;;;;;5023545;28;20413;-82
2022/06/10 02:12:37;;;;;;;6.63;4.78;;;16.00;99.90;;;;;;5007292;28;20410;-83
2022/06/10 02:15:20;;;;;;;8.60;5.00;;;16.00;99.90;;;;;;5016324;28;20508;-84
2022/06/10 02:18:12;;;;;;;8.00;4.78;;;16.00;99.90;;;;;;5017298;28;20413;-83
2022/06/10 02:20:56;;;;;;;6.77;5.10;;;16.00;99.90;;;;;;5001856;28;20472;-82
2022/06/10 02:23:28;;;;;;;8.90;4.93;;;16.10;99.90;;;;;;5027846;28;20404;-84
2022/06/10 02:25:58;;;;;;;10.10;5.22;;;16.00;99.90;;;;;;5020572;28;20399;-83
2022/06/10 02:28:36;;;;;;;6.18;4.43;;;16.00;99.90;;;;;;5019412;28;20999;-84
2022/06/10 02:31:15;;;;;;;6.95;4.78;;;16.00;99.90;;;;;;5022118;28;20408;-83
2022/06/10 02:33:44;;;;;;;8.02;4.57;;;16.00;99.90;;;;;;5017859;28;20409;-83
2022/06/10 02:36:45;;;;;;;9.40;4.82;;;16.00;99.90;;;;;;5015772;28;20409;-84
2022/06/10 02:39:24;;;;;;;7.57;4.50;;;16.00;99.90;;;;;;5053057;28;20419;-83
2022/06/10 02:42:10;;;;;;;7.68;4.75;;;16.00;99.90;;;;;;5020373;28;20395;-82
2022/06/10 02:45:22;;;;;;;7.43;4.80;;;16.10;99.90;;;;;;5023421;28;20386;-84
2022/06/10 02:48:26;;;;;;;8.40;5.13;;;16.10;99.90;;;;;;5082339;28;20397;-82
2022/06/10 02:50:54;;;;;;;8.07;4.80;;;16.10;99.90;;;;;;5071518;28;20410;-84
2022/06/10 02:53:21;;;;;;;5.43;4.18;;;16.10;99.90;;;;;;5037403;28;20398;-83
2022/06/10 02:55:49;;;;;;;7.45;4.47;;;16.10;99.90;;;;;;5019928;28;20403;-84
2022/06/10 03:01:40;;;;;;;8.50;4.97;;;16.00;99.90;;;;;;5018685;28;20486;-83
2022/06/10 03:04:14;;;;;;;7.77;4.90;;;16.00;99.90;;;;;;5043125;28;20401;-84
2022/06/10 03:06:50;;;;;;;8.15;4.65;;;16.10;99.90;;;;;;5018809;28;20480;-83
2022/06/10 03:10:08;;;;;;;5.90;5.05;;;16.00;99.90;;;;;;5003326;28;20397;-82
2022/06/10 03:12:52;;;;;;;7.97;4.72;;;16.10;99.90;;;;;;5057210;28;20973;-84
2022/06/10 03:15:42;;;;;;;8.32;4.63;;;16.10;99.90;;;;;;5014981;28;20408;-84
2022/06/10 03:18:28;;;;;;;5.90;4.47;;;16.10;99.90;;;;;;5022748;28;20409;-83
2022/06/10 03:20:58;;;;;;;5.47;4.40;;;16.10;99.90;;;;;;5004063;28;20777;-83
2022/06/10 03:24:24;;;;;;;5.93;4.32;;;16.10;99.90;;;;;;5012246;28;20901;-83
2022/06/10 03:27:28;;;;;;;7.65;4.63;;;16.10;99.90;;;;;;5058917;28;20404;-84
2022/06/10 03:30:05;;;;;;;7.13;4.90;;;16.10;99.90;;;;;;5018103;28;20402;-82
2022/06/10 03:32:53;;;;;;;8.20;4.80;;;16.20;99.90;;;;;;5017776;28;20397;-84
2022/06/10 03:35:30;;;;;;;6.07;4.63;;;16.30;99.90;;;;;;5009484;28;20405;-84
2022/06/10 03:38:00;;;;;;;7.95;5.10;;;16.30;99.90;;;;;;5019323;28;20418;-82
2022/06/10 03:40:29;;;;;;;6.60;5.22;;;16.20;99.90;;;;;;5019721;28;20405;-83
2022/06/10 03:43:00;;;;;;;6.95;4.85;;;16.30;99.90;;;;;;5010681;28;20954;-82
2022/06/10 03:45:41;;;;;;;4.40;3.97;;;16.20;99.90;;;;;;5020476;28;20398;-83
2022/06/10 03:48:15;;;;;;;6.38;5.03;;;16.20;99.90;;;;;;5020406;28;20409;-83
2022/06/10 03:50:44;;;;;;;6.30;4.32;;;16.20;99.90;;;;;;4996788;28;20401;-84
2022/06/10 03:53:17;;;;;;;6.60;4.43;;;16.20;99.90;;;;;;5009167;28;20499;-84
2022/06/10 03:55:45;;;;;;;6.95;4.72;;;16.20;99.90;;;;;;4997853;28;20407;-84
2022/06/10 03:58:13;;;;;;;8.70;4.72;;;16.30;99.90;;;;;;5014233;28;20506;-84
2022/06/10 04:00:41;;;;;;;7.03;4.73;;;16.30;99.90;;;;;;5019896;28;20474;-82
2022/06/10 04:03:09;;;;;;;7.22;5.03;;;16.30;99.90;;;;;;5012723;28;20420;-81
2022/06/10 04:05:37;;;;;;;5.70;4.97;;;16.30;99.90;;;;;;5017889;28;20399;-83
2022/06/10 04:08:25;;;;;;;5.88;5.03;;;16.30;99.90;;;;;;5019559;28;20399;-83
2022/06/10 04:10:52;;;;;;;7.82;4.75;;;16.30;99.90;;;;;;5011182;28;20410;-83
2022/06/10 04:13:20;;;;;;;5.90;4.68;;;16.30;99.90;;;;;;5011048;28;20403;-81
2022/06/10 04:15:48;;;;;;;7.43;4.73;;;16.40;99.90;;;;;;5009157;28;20397;-84
2022/06/10 04:18:16;;;;;;;6.22;5.18;;;16.40;99.90;;;;;;5017971;28;20974;-84
2022/06/10 04:20:44;;;;;;;6.78;4.90;;;16.40;99.90;;;;;;5011316;28;20414;-83
2022/06/10 04:23:13;;;;;;;6.60;5.43;;;16.40;99.90;;;;;;5015133;28;20401;-82
2022/06/10 04:25:41;;;;;;;7.65;5.20;;;16.50;99.90;;;;;;5002638;28;20401;-82
2022/06/10 04:28:10;;;;;;;5.32;4.82;;;16.50;99.90;;;;;;5009324;28;20393;-83
2022/06/10 04:30:44;;;;;;;5.75;5.03;;;16.50;99.90;;;;;;5018932;28;20930;-84
2022/06/10 04:33:12;;;;;;;5.72;5.13;;;16.50;99.90;;;;;;5016709;28;20396;-81
2022/06/10 04:35:41;;;;;;;6.75;5.03;;;16.50;99.90;;;;;;5045308;28;20419;-84
2022/06/10 04:38:11;;;;;;;5.53;5.00;;;16.50;99.90;;;;;;5020588;28;20459;-84
2022/06/10 04:40:41;;;;;;;5.85;5.28;;;16.60;99.90;;;;;;5019026;28;20438;-83
2022/06/10 04:43:09;;;;;;;6.72;5.10;;;16.50;99.90;;;;;;5007455;28;20456;-83
2022/06/10 04:45:41;;;;;;;6.20;5.32;;;16.60;99.90;;;;;;5015399;28;20403;-84
2022/06/10 04:48:11;;;;;;;7.30;5.30;;;16.60;99.90;;;;;;5014104;28;20494;-83
2022/06/10 04:50:40;;;;;;;5.97;5.38;;;16.60;99.90;;;;;;5025408;28;20406;-84
2022/06/10 04:53:08;;;;;;;7.13;5.50;;;16.70;99.90;;;;;;5010674;28;20808;-84
2022/06/10 04:55:36;;;;;;;5.15;4.15;;;16.80;99.90;;;;;;5018241;28;20400;-83
2022/06/10 04:58:05;;;;;;;5.25;4.47;;;16.80;99.90;;;;;;5016842;28;20454;-84
2022/06/10 05:00:37;;;;;;;5.82;4.40;;;16.80;99.90;;;;;;5014840;28;20468;-84
2022/06/10 05:03:06;;;;;;;7.22;4.57;;;16.80;99.90;;;;;;5008593;28;20393;-81
2022/06/10 05:05:34;;;;;;;7.75;4.50;;;16.80;99.90;;;;;;5004633;28;20454;-85
2022/06/10 05:08:03;;;;;;;7.03;4.57;;;16.80;99.90;;;;;;5044385;28;20404;-84
2022/06/10 05:10:32;;;;;;;5.63;4.63;;;16.90;99.90;;;;;;5000358;28;20409;-85
2022/06/10 05:13:00;;;;;;;6.05;4.55;;;16.90;99.90;;;;;;4999440;28;20514;-83
2022/06/10 05:15:28;;;;;;;5.35;4.57;;;16.90;99.90;;;;;;5009694;28;20410;-85
2022/06/10 05:17:58;;;;;;;9.27;4.60;;;17.00;99.90;;;;;;5001283;28;20412;-83
2022/06/10 05:20:32;;;;;;;5.97;4.80;;;17.00;99.90;;;;;;4993498;28;20397;-83
2022/06/10 05:23:02;;;;;;;7.53;5.53;;;17.10;99.90;;;;;;5006424;28;20949;-82
2022/06/10 05:25:31;;;;;;;9.88;6.03;;;17.20;99.90;;;;;;5013678;28;20384;-83
2022/06/10 05:27:59;;;;;;;17.60;12.38;;;17.20;99.90;;;;;;5010169;28;20496;-81
2022/06/10 05:30:30;;;;;;;5.88;5.20;;;17.30;99.90;;;;;;5008005;28;20426;-83
2022/06/10 05:33:01;;;;;;;5.70;5.00;;;17.30;99.90;;;;;;5010280;28;20446;-82
2022/06/10 05:35:30;;;;;;;6.25;5.47;;;17.30;99.90;;;;;;5009478;28;20810;-83
2022/06/10 05:37:58;;;;;;;6.25;4.85;;;17.30;99.90;;;;;;5021912;28;20441;-82
2022/06/10 05:40:28;;;;;;;5.82;5.03;;;17.30;99.90;;;;;;5007782;28;20399;-83
2022/06/10 05:42:56;;;;;;;7.10;5.60;;;17.30;99.90;;;;;;5014941;28;20395;-83
2022/06/10 05:45:25;;;;;;;7.07;5.60;;;17.40;99.90;;;;;;5010664;28;20425;-82
2022/06/10 05:47:55;;;;;;;6.82;5.70;;;17.50;99.90;;;;;;5000717;28;20425;-82
2022/06/10 05:50:25;;;;;;;6.60;5.60;;;17.50;99.90;;;;;;5026892;28;20840;-82
2022/06/10 05:52:53;;;;;;;5.77;5.17;;;17.70;99.90;;;;;;5010820;28;20460;-83
2022/06/10 05:55:22;;;;;;;5.93;5.22;;;17.80;99.90;;;;;;5014059;28;20404;-82
2022/06/10 05:57:51;;;;;;;6.80;5.00;;;17.80;99.90;;;;;;5014997;28;20402;-83
2022/06/10 06:00:23;;;;;;;7.78;5.30;;;17.80;99.90;;;;;;5017353;28;20518;-83
2022/06/10 06:02:52;;;;;;;5.72;5.13;;;17.90;99.90;;;;;;5015131;28;21000;-84
2022/06/10 06:05:21;;;;;;;6.32;5.15;;;18.00;99.90;;;;;;5009819;28;20492;-83
2022/06/10 06:07:50;;;;;;;7.25;5.47;;;18.00;99.90;;;;;;5017182;28;20412;-83
2022/06/10 06:10:22;;;;;;;6.07;5.18;;;18.10;99.90;;;;;;5009986;28;20396;-83
2022/06/10 06:12:50;;;;;;;6.47;5.75;;;18.10;99.90;;;;;;5022936;28;20887;-81
2022/06/10 06:15:18;;;;;;;6.13;5.07;;;18.10;99.90;;;;;;5021809;28;20419;-83
2022/06/10 06:17:50;;;;;;;6.88;5.68;;;18.30;99.90;;;;;;5017701;28;20735;-83
2022/06/10 06:20:21;;;;;;;6.90;5.20;;;18.30;99.90;;;;;;5012889;28;20409;-81
2022/06/10 06:22:49;;;;;;;6.85;5.22;;;18.30;99.90;;;;;;5007139;28;20426;-84
2022/06/10 06:25:18;;;;;;;6.78;5.00;;;18.40;99.90;;;;;;5010853;28;20401;-83
2022/06/10 06:27:48;;;;;;;24.70;7.40;;;18.40;99.90;;;;;;5011323;28;20389;-82
2022/06/10 06:30:20;;;;;;;6.47;4.50;;;18.40;99.90;;;;;;5018041;28;20954;-83
2022/06/10 06:32:48;;;;;;;7.00;5.07;;;18.50;99.90;;;;;;5013272;28;20414;-83
2022/06/10 06:35:15;;;;;;;7.78;4.80;;;18.50;99.90;;;;;;5011989;28;20400;-83
2022/06/10 06:37:43;;;;;;;7.38;4.78;;;18.50;99.90;;;;;;5004194;28;20408;-83
2022/06/10 06:40:12;;;;;;;9.13;5.30;;;18.50;99.90;;;;;;5015301;28;20407;-82
2022/06/10 06:42:39;;;;;;;5.85;4.85;;;18.60;99.90;;;;;;5020510;28;20406;-82
2022/06/10 06:45:09;;;;;;;8.43;4.95;;;18.70;99.90;;;;;;4998901;28;20450;-83
2022/06/10 06:47:56;;;;;;;6.68;4.90;;;18.60;99.90;;;;;;5007422;28;20389;-82
2022/06/10 06:50:27;;;;;;;8.48;5.57;;;18.70;99.90;;;;;;5016146;28;20439;-79
2022/06/10 06:52:58;;;;;;;6.03;4.75;;;18.60;99.90;;;;;;5008863;28;20403;-81
2022/06/10 06:55:34;;;;;;;5.80;4.72;;;18.80;99.90;;;;;;5015499;28;20408;-83
2022/06/10 06:58:03;;;;;;;4.90;4.40;;;18.80;99.90;;;;;;5016312;28;20508;-82
2022/06/10 07:00:32;;;;;;;5.88;4.30;;;18.80;99.90;;;;;;5016132;28;20383;-82
2022/06/10 07:03:00;;;;;;;6.90;4.70;;;18.90;99.90;;;;;;5015814;28;20383;-83
2022/06/10 07:05:29;;;;;;;7.15;4.90;;;19.00;99.90;;;;;;5012196;28;20417;-82
2022/06/10 07:07:57;;;;;;;6.47;5.03;;;19.10;99.90;;;;;;5024193;28;20426;-82
2022/06/10 07:10:25;;;;;;;6.70;4.45;;;19.10;99.90;;;;;;5016005;28;20397;-82
2022/06/10 07:12:52;;;;;;;5.95;4.55;;;19.40;99.90;;;;;;5031747;28;20402;-81
2022/06/10 07:15:21;;;;;;;6.10;4.50;;;19.40;99.90;;;;;;5005962;28;20404;-83
2022/06/10 07:17:49;;;;;;;5.30;4.40;;;19.40;99.90;;;;;;5011253;28;20455;-83
2022/06/10 07:20:28;;;;;;;7.38;4.70;;;19.40;99.90;;;;;;5021089;28;20418;-83
2022/06/10 07:22:57;;;;;;;5.70;4.47;;;19.40;99.90;;;;;;5018595;28;20403;-82
2022/06/10 07:25:27;;;;;;;5.88;4.70;;;19.40;99.90;;;;;;5012861;28;20390;-81
2022/06/10 07:27:56;;;;;;;5.30;4.80;;;19.50;99.90;;;;;;5013848;28;20932;-80
2022/06/10 07:30:26;;;;;;;7.30;4.50;;;19.50;99.90;;;;;;5019432;28;20395;-82
2022/06/10 07:32:54;;;;;;;6.60;4.45;;;19.60;99.90;;;;;;5017466;28;20399;-82
2022/06/10 07:35:22;;;;;;;7.82;4.65;;;19.60;99.90;;;;;;5013059;28;20416;-83
2022/06/10 07:37:50;;;;;;;6.38;4.80;;;19.60;99.90;;;;;;5008125;28;20968;-82
2022/06/10 07:43:40;;;;;;;7.30;4.57;;;20.00;99.90;;;;;;5014184;28;20483;-83
2022/06/10 07:46:12;;;;;;;5.53;4.80;;;20.00;99.90;;;;;;5012317;28;20433;-82
2022/06/10 07:48:40;;;;;;;6.75;4.97;;;20.00;99.90;;;;;;5010427;28;20476;-81
2022/06/10 07:51:07;;;;;;;6.00;4.80;;;20.10;99.90;;;;;;5013009;28;20459;-84
2022/06/10 07:53:35;;;;;;;7.25;4.78;;;20.20;99.90;;;;;;5011458;28;20409;-83
2022/06/10 07:56:03;;;;;;;7.07;4.82;;;20.30;99.90;;;;;;5021875;28;20513;-82
2022/06/10 07:58:31;;;;;;;5.88;4.68;;;20.30;99.90;;;;;;5017267;28;20416;-83
2022/06/10 08:00:58;;;;;;;6.65;5.05;;;20.20;99.90;;;;;;5018646;28;20762;-81
2022/06/10 08:03:27;;;;;;;8.10;4.97;;;20.30;99.90;;;;;;5014764;28;20883;-81
2022/06/10 08:05:56;;;;;;;5.32;4.45;;;20.40;99.90;;;;;;5018836;28;20413;-82
2022/06/10 08:08:23;;;;;;;6.53;4.67;;;20.50;99.90;;;;;;5019028;28;20386;-82
2022/06/10 08:10:51;;;;;;;6.32;4.45;;;20.50;99.90;;;;;;5019977;28;20389;-82
2022/06/10 08:13:20;;;;;;;4.80;3.90;;;20.40;99.90;;;;;;5021251;28;20409;-83
2022/06/10 08:15:55;;;;;;;7.32;4.40;;;20.40;99.90;;;;;;5019018;28;20410;-82
2022/06/10 08:18:23;;;;;;;4.90;4.40;;;20.40;99.90;;;;;;5003510;28;20488;-83
2022/06/10 08:23:37;;;;;;;6.07;4.40;;;20.40;99.90;;;;;;5001729;28;20405;-82
2022/06/10 08:26:07;;;;;;;5.88;4.38;;;20.60;99.90;;;;;;5020549;28;20894;-83
2022/06/10 08:28:38;;;;;;;4.97;4.47;;;20.70;99.90;;;;;;5017041;28;20431;-82
2022/06/10 08:31:05;;;;;;;5.47;4.97;;;20.60;99.90;;;;;;5016765;28;20401;-82
2022/06/10 08:33:33;;;;;;;5.43;4.72;;;20.60;99.90;;;;;;5017867;28;20387;-82
2022/06/10 08:36:03;;;;;;;5.45;4.95;;;20.90;99.90;;;;;;5012565;28;20382;-82
2022/06/10 08:38:31;;;;;;;5.15;4.65;;;20.90;99.90;;;;;;5015435;28;20399;-82
2022/06/10 08:41:23;;;;;;;6.68;4.80;;;21.00;99.90;;;;;;5008650;28;20408;-82
2022/06/10 08:44:17;;;;;;;6.20;4.70;;;21.20;99.90;;;;;;5019424;28;20450;-82
2022/06/10 08:47:07;;;;;;;7.90;5.05;;;21.20;99.90;;;;;;4994093;28;20395;-81
2022/06/10 08:50:01;;;;;;;7.00;4.40;;;21.20;99.90;;;;;;5010574;28;20463;-83
2022/06/10 08:52:30;;;;;;;6.28;4.57;;;21.10;99.90;;;;;;4997872;28;20948;-83
2022/06/10 08:55:12;;;;;;;7.03;4.75;;;21.00;99.90;;;;;;5011541;28;20401;-82
2022/06/10 08:57:48;;;;;;;5.00;4.50;;;20.90;99.90;;;;;;5013387;28;20400;-83
2022/06/10 09:00:21;;;;;;;5.20;4.60;;;20.80;99.90;;;;;;5020282;28;20402;-83
2022/06/10 09:03:28;;;;;;;5.43;4.88;;;20.70;99.90;;;;;;5018463;28;20431;-83
2022/06/10 09:06:00;;;;;;;6.43;4.85;;;20.80;99.90;;;;;;5011504;28;20402;-82
2022/06/10 09:08:39;;;;;;;5.95;4.85;;;20.90;99.90;;;;;;5018516;28;20391;-82
2022/06/10 09:11:21;;;;;;;6.03;5.07;;;21.00;99.90;;;;;;5016264;28;20392;-83
2022/06/10 09:14:02;;;;;;;6.28;4.80;;;21.30;99.90;;;;;;5053344;28;20401;-81
2022/06/10 09:16:45;;;;;;;6.22;4.75;;;21.50;99.90;;;;;;5014399;28;20764;-83
2022/06/10 09:19:33;;;;;;;6.25;4.85;;;21.60;99.90;;;;;;5015297;28;20416;-83
2022/06/10 09:22:15;;;;;;;5.22;4.50;;;21.70;99.90;;;;;;5011451;28;20865;-83
2022/06/10 09:24:54;;;;;;;6.18;4.50;;;21.80;99.90;;;;;;5012441;28;20392;-83
2022/06/10 09:27:37;;;;;;;5.00;4.10;;;21.80;99.90;;;;;;5006015;28;20404;-84
2022/06/10 09:30:08;;;;;;;5.50;4.45;;;21.90;99.90;;;;;;5014815;28;20471;-82
2022/06/10 09:32:57;;;;;;;4.70;4.20;;;21.80;99.90;;;;;;5015371;28;20402;-84
2022/06/10 09:36:00;;;;;;;6.50;4.40;;;21.70;99.90;;;;;;4993591;28;20462;-82
2022/06/10 09:39:00;;;;;;;5.45;4.32;;;21.60;99.90;;;;;;5017189;28;20434;-86
2022/06/10 09:41:53;;;;;;;6.07;4.35;;;21.60;99.90;;;;;;5013305;28;20388;-86
2022/06/10 09:44:50;;;;;;;6.22;4.25;;;21.70;99.90;;;;;;5014126;28;20909;-85
2022/06/10 09:47:45;;;;;;;5.47;4.60;;;21.80;99.90;;;;;;5012809;28;20449;-84
2022/06/10 09:50:25;;;;;;;6.25;4.35;;;21.70;99.90;;;;;;5020627;28;20891;-87
2022/06/10 09:53:17;;;;;;;6.68;4.40;;;21.70;99.90;;;;;;5007859;28;20436;-85
2022/06/10 09:55:57;;;;;;;6.55;4.60;;;21.60;99.90;;;;;;5014998;28;20431;-87
2022/06/10 09:59:00;;;;;;;6.70;4.67;;;21.60;99.90;;;;;;5008850;28;20839;-86
2022/06/10 10:01:41;;;;;;;5.72;4.60;;;21.80;99.90;;;;;;5006524;28;20435;-84
2022/06/10 10:04:28;;;;;;;6.95;4.30;;;21.90;99.90;;;;;;5004513;28;20397;-84
2022/06/10 10:07:10;;;;;;;6.07;4.28;;;22.00;99.90;;;;;;5006448;28;20764;-86
2022/06/10 10:10:01;;;;;;;5.45;4.10;;;22.10;99.90;;;;;;5015026;28;20893;-84
2022/06/10 10:12:44;;;;;;;5.35;4.35;;;22.20;99.90;;;;;;5009296;28;20403;-85
2022/06/10 10:15:32;;;;;;;5.88;4.60;;;22.50;99.90;;;;;;5013022;28;20402;-85
2022/06/10 10:18:26;;;;;;;5.70;5.03;;;22.60;99.90;;;;;;5034666;28;20408;-83
2022/06/10 10:21:19;;;;;;;6.82;4.57;;;22.50;99.90;;;;;;5024638;28;20405;-86
2022/06/10 10:23:50;;;;;;;6.07;4.97;;;22.40;99.90;;;;;;5041572;28;20397;-86
2022/06/10 10:26:33;;;;;;;5.20;4.70;;;22.40;99.90;;;;;;5009239;28;20500;-86
2022/06/10 10:29:05;;;;;;;7.78;4.78;;;22.40;99.90;;;;;;4997961;28;20389;-86
2022/06/10 10:31:45;;;;;;;7.35;4.95;;;22.70;99.90;;;;;;5000728;28;20400;-86
2022/06/10 10:34:23;;;;;;;6.22;4.88;;;22.80;99.90;;;;;;5007225;28;20405;-87
2022/06/10 10:36:58;;;;;;;5.65;4.88;;;22.90;99.90;;;;;;5009270;28;20399;-86
2022/06/10 10:39:35;;;;;;;5.78;5.03;;;22.90;99.90;;;;;;5006091;28;20445;-86
2022/06/10 10:42:13;;;;;;;5.10;4.55;;;22.90;99.90;;;;;;5019222;28;20399;-86
2022/06/10 10:45:03;;;;;;;8.45;5.07;;;22.80;99.90;;;;;;5018404;28;20429;-84
2022/06/10 10:47:32;;;;;;;6.50;4.93;;;22.90;99.90;;;;;;4989465;28;20429;-86
2022/06/10 10:50:03;;;;;;;4.90;4.00;;;23.00;99.90;;;;;;5016876;28;20407;-87
2022/06/10 10:52:34;;;;;;;5.03;4.20;;;23.10;99.90;;;;;;5018867;28;20415;-86
2022/06/10 10:55:11;;;;;;;5.28;4.13;;;23.10;99.90;;;;;;5011793;28;20447;-86
2022/06/10 10:58:20;;;;;;;4.43;3.90;;;23.30;99.90;;;;;;5015051;28;20390;-86
2022/06/10 11:01:01;;;;;;;4.28;3.88;;;23.50;99.90;;;;;;5017324;28;20415;-84
2022/06/10 11:03:33;;;;;;;4.47;3.87;;;23.40;99.90;;;;;;5001541;28;20411;-86
2022/06/10 11:06:05;;;;;;;4.43;3.72;;;23.50;99.90;;;;;;4992911;28;20485;-86
2022/06/10 11:08:36;;;;;;;4.72;3.92;;;23.70;99.90;;;;;;5016298;28;20407;-86
2022/06/10 11:11:17;;;;;;;4.28;3.63;;;23.80;99.90;;;;;;5016340;28;20396;-85
2022/06/10 11:13:54;;;;;;;4.60;4.00;;;23.90;99.90;;;;;;5019644;28;20437;-85
2022/06/10 11:16:27;;;;;;;5.28;4.28;;;23.80;99.90;;;;;;5017223;28;20938;-87
2022/06/10 11:19:07;;;;;;;4.20;3.80;;;23.80;99.90;;;;;;5017674;28;20962;-86
2022/06/10 11:21:49;;;;;;;7.00;4.17;;;23.80;99.90;;;;;;5029090;28;20404;-86
2022/06/10 11:24:22;;;;;;;4.63;4.20;;;23.80;99.90;;;;;;5009775;28;20490;-85
2022/06/10 11:26:59;;;;;;;6.35;3.85;;;23.90;99.90;;;;;;5014001;28;20403;-84
2022/06/10 11:29:28;;;;;;;5.32;3.97;;;23.90;99.90;;;;;;5014145;28;20440;-87
2022/06/10 11:32:05;;;;;;;6.00;4.00;;;24.00;99.90;;;;;;5004295;28;20797;-85
2022/06/10 11:34:43;;;;;;;5.18;3.95;;;24.10;99.90;;;;;;5034007;28;20956;-87
2022/06/10 11:37:31;;;;;;;4.70;4.03;;;24.10;99.90;;;;;;5009278;28;20940;-86
2022/06/10 11:40:22;;;;;;;5.22;4.30;;;24.30;99.90;;;;;;5015815;28;20470;-86
2022/06/10 11:43:07;;;;;;;5.90;4.63;;;24.40;99.90;;;;;;5022595;28;20501;-86
2022/06/10 11:45:41;;;;;;;4.90;4.32;;;24.50;99.90;;;;;;5006100;28;20393;-87
2022/06/10 11:48:18;;;;;;;5.03;4.13;;;24.50;99.90;;;;;;5016388;28;20450;-86
2022/06/10 11:50:49;;;;;;;5.20;4.70;;;24.50;99.90;;;;;;5015363;28;20408;-85
2022/06/10 11:53:39;;;;;;;4.70;4.18;;;24.40;99.90;;;;;;4998222;28;20482;-86
2022/06/10 12:02:35;;;;;;;5.35;4.10;;;24.40;99.90;;;;;;4998279;28;20401;-86
2022/06/10 12:05:31;;;;;;;6.10;4.45;;;24.50;99.90;;;;;;4995061;28;20416;-86
2022/06/10 12:08:07;;;;;;;4.70;4.20;;;24.60;99.90;;;;;;5005146;28;20412;-86
2022/06/10 12:10:49;;;;;;;5.85;4.60;;;24.50;99.90;;;;;;4994344;28;20477;-86
2022/06/10 12:13:17;;;;;;;4.72;4.30;;;24.40;99.90;;;;;;4999968;28;20586;-87
2022/06/10 12:15:55;;;;;;;4.65;4.15;;;24.30;99.90;;;;;;4999794;28;20910;-86
2022/06/10 12:18:27;;;;;;;4.60;4.18;;;24.30;99.90;;;;;;5004264;28;20512;-87
2022/06/10 12:21:05;;;;;;;4.90;4.32;;;24.20;99.90;;;;;;5008198;28;20426;-85
2022/06/10 12:23:37;;;;;;;6.57;4.43;;;24.20;99.90;;;;;;5007198;28;20793;-86
2022/06/10 12:26:42;;;;;;;4.80;4.35;;;24.20;99.90;;;;;;5001309;28;20403;-85
2022/06/10 12:29:13;;;;;;;6.18;4.45;;;24.10;99.90;;;;;;5003954;28;20431;-86
2022/06/10 12:31:51;;;;;;;5.43;4.55;;;24.40;99.90;;;;;;5044254;28;20929;-86
2022/06/10 12:34:26;;;;;;;6.70;4.53;;;24.50;99.90;;;;;;5011975;28;20424;-86
2022/06/10 12:36:59;;;;;;;4.97;4.43;;;24.60;99.90;;;;;;5009921;28;20432;-86
2022/06/10 12:40:08;;;;;;;5.30;4.70;;;24.80;99.90;;;;;;4999833;28;20405;-85
2022/06/10 12:42:52;;;;;;;5.15;4.65;;;24.80;99.90;;;;;;5019881;28;20463;-86
2022/06/10 12:45:25;;;;;;;5.35;4.88;;;24.70;99.90;;;;;;5009373;28;20404;-86
2022/06/10 12:47:59;;;;;;;5.28;4.72;;;24.60;99.90;;;;;;5012216;28;20468;-85
2022/06/10 12:50:35;;;;;;;5.32;4.80;;;24.70;99.90;;;;;;5013700;28;21016;-86
2022/06/10 12:53:16;;;;;;;5.53;4.88;;;24.90;99.90;;;;;;5009093;28;20413;-85
2022/06/10 12:55:56;;;;;;;5.45;4.85;;;25.00;99.90;;;;;;5013845;28;20405;-86
2022/06/10 12:58:39;;;;;;;5.88;4.75;;;25.10;99.90;;;;;;5012287;28;20810;-86
2022/06/10 13:01:34;;;;;;;4.72;4.32;;;24.90;99.90;;;;;;5048035;28;20489;-84
2022/06/10 13:04:10;;;;;;;5.13;4.60;;;24.70;99.90;;;;;;4999617;28;20428;-84
2022/06/10 13:06:41;;;;;;;5.53;4.97;;;24.60;99.90;;;;;;5013719;28;20403;-83
2022/06/10 13:09:12;;;;;;;5.43;4.93;;;24.50;99.90;;;;;;5018271;28;20432;-85
2022/06/10 13:11:53;;;;;;;5.20;4.70;;;24.40;99.90;;;;;;5010107;28;20419;-85
2022/06/10 13:14:38;;;;;;;5.30;4.43;;;24.40;99.90;;;;;;5020085;28;20388;-86
2022/06/10 13:17:14;;;;;;;6.37;5.17;;;24.50;99.90;;;;;;4996700;28;20432;-84
2022/06/10 13:19:51;;;;;;;4.80;4.40;;;24.80;99.90;;;;;;5018615;28;20404;-83
2022/06/10 13:22:19;;;;;;;4.80;4.40;;;24.70;99.90;;;;;;5006353;28;20446;-84
2022/06/10 13:24:53;;;;;;;5.90;4.60;;;24.70;99.90;;;;;;5010326;28;20442;-85
2022/06/10 13:27:27;;;;;;;5.50;4.45;;;25.00;99.90;;;;;;5003169;28;20832;-83
2022/06/10 13:30:16;;;;;;;4.63;4.18;;;25.20;99.90;;;;;;5009952;28;20427;-83
2022/06/10 13:33:01;;;;;;;5.35;4.75;;;25.40;99.90;;;;;;5010819;28;20971;-83
2022/06/10 13:35:48;;;;;;;6.28;5.10;;;25.40;99.90;;;;;;5005516;28;20431;-84
2022/06/10 13:38:19;;;;;;;5.90;5.30;;;25.20;99.90;;;;;;5014508;28;20472;-84
2022/06/10 13:40:53;;;;;;;5.00;4.60;;;25.30;99.90;;;;;;5012879;28;20781;-84
2022/06/10 13:43:33;;;;;;;5.87;4.93;;;25.20;99.90;;;;;;4993359;28;20409;-84
2022/06/10 13:46:00;;;;;;;5.90;4.15;;;25.10;99.90;;;;;;5003947;28;20460;-84
2022/06/10 13:48:29;;;;;;;4.57;4.17;;;25.10;99.90;;;;;;5010073;28;20798;-85
2022/06/10 13:53:39;;;;;;;4.60;4.20;;;24.80;99.90;;;;;;5003896;28;20887;-85
2022/06/10 13:56:13;;;;;;;5.03;4.63;;;24.70;99.90;;;;;;5003102;28;20406;-86